sensor_id;sensor_type;location;lat;lon;timestamp;pressure;altitude;pressure_sealevel;temperature;humidity
65013;BME280;51715;39.432;-77.518;2023-03-13T00:01:14;99400.48;;;5.66;43.59
65013;BME280;51715;39.432;-77.518;2023-03-13T00:03:43;99402.72;;;5.88;43.71
65013;BME280;51715;39.432;-77.518;2023-03-13T00:06:11;99401.58;;;5.57;44.27
65013;BME280;51715;39.432;-77.518;2023-03-13T00:08:41;99400.50;;;5.17;44.66
65013;BME280;51715;39.432;-77.518;2023-03-13T00:11:11;99392.49;;;5.46;44.29
65013;BME280;51715;39.432;-77.518;2023-03-13T00:13:39;99386.54;;;5.45;44.23
65013;BME280;51715;39.432;-77.518;2023-03-13T00:16:15;99385.35;;;5.76;44.36
65013;BME280;51715;39.432;-77.518;2023-03-13T00:18:48;99386.95;;;5.76;43.91
65013;BME280;51715;39.432;-77.518;2023-03-13T00:21:19;99383.08;;;5.84;43.99
65013;BME280;51715;39.432;-77.518;2023-03-13T00:23:48;99381.13;;;5.53;44.24
65013;BME280;51715;39.432;-77.518;2023-03-13T00:26:18;99381.14;;;5.89;43.92
65013;BME280;51715;39.432;-77.518;2023-03-13T00:28:49;99378.85;;;5.97;43.83
65013;BME280;51715;39.432;-77.518;2023-03-13T00:31:19;99378.16;;;5.77;44.08
65013;BME280;51715;39.432;-77.518;2023-03-13T00:33:49;99372.27;;;5.73;44.21
65013;BME280;51715;39.432;-77.518;2023-03-13T00:36:20;99371.41;;;5.90;44.11
65013;BME280;51715;39.432;-77.518;2023-03-13T00:38:50;99373.32;;;5.97;43.80
65013;BME280;51715;39.432;-77.518;2023-03-13T00:41:20;99375.57;;;5.69;44.01
65013;BME280;51715;39.432;-77.518;2023-03-13T00:43:50;99373.51;;;6.28;43.77
65013;BME280;51715;39.432;-77.518;2023-03-13T00:46:20;99372.79;;;6.21;43.73
65013;BME280;51715;39.432;-77.518;2023-03-13T00:48:50;99373.29;;;5.60;44.18
65013;BME280;51715;39.432;-77.518;2023-03-13T00:51:20;99374.62;;;5.71;44.34
65013;BME280;51715;39.432;-77.518;2023-03-13T00:53:49;99381.95;;;5.44;45.12
65013;BME280;51715;39.432;-77.518;2023-03-13T00:56:19;99386.64;;;5.33;45.04
65013;BME280;51715;39.432;-77.518;2023-03-13T00:58:48;99389.41;;;5.64;44.65
65013;BME280;51715;39.432;-77.518;2023-03-13T01:01:20;99392.53;;;5.74;45.16
65013;BME280;51715;39.432;-77.518;2023-03-13T01:03:51;99393.27;;;5.55;45.09
65013;BME280;51715;39.432;-77.518;2023-03-13T01:06:21;99391.49;;;6.01;45.20
65013;BME280;51715;39.432;-77.518;2023-03-13T01:08:50;99395.03;;;5.86;45.10
65013;BME280;51715;39.432;-77.518;2023-03-13T01:11:21;99391.22;;;5.88;44.77
65013;BME280;51715;39.432;-77.518;2023-03-13T01:13:52;99395.19;;;5.90;44.95
65013;BME280;51715;39.432;-77.518;2023-03-13T01:16:22;99393.32;;;5.49;45.56
65013;BME280;51715;39.432;-77.518;2023-03-13T01:18:55;99388.15;;;5.79;45.29
65013;BME280;51715;39.432;-77.518;2023-03-13T01:21:24;99389.56;;;5.62;45.91
65013;BME280;51715;39.432;-77.518;2023-03-13T01:23:54;99389.60;;;5.73;45.87
65013;BME280;51715;39.432;-77.518;2023-03-13T01:26:23;99388.56;;;5.63;46.22
65013;BME280;51715;39.432;-77.518;2023-03-13T01:28:51;99388.57;;;5.17;46.80
65013;BME280;51715;39.432;-77.518;2023-03-13T01:31:22;99389.71;;;5.14;46.70
65013;BME280;51715;39.432;-77.518;2023-03-13T01:33:53;99387.46;;;5.07;46.74
65013;BME280;51715;39.432;-77.518;2023-03-13T01:36:23;99386.81;;;5.52;46.05
65013;BME280;51715;39.432;-77.518;2023-03-13T01:38:53;99387.01;;;5.87;45.83
65013;BME280;51715;39.432;-77.518;2023-03-13T01:41:24;99392.02;;;4.94;47.35
65013;BME280;51715;39.432;-77.518;2023-03-13T01:43:53;99390.19;;;5.29;46.96
65013;BME280;51715;39.432;-77.518;2023-03-13T01:46:22;99383.43;;;5.53;46.20
65013;BME280;51715;39.432;-77.518;2023-03-13T01:48:54;99384.51;;;5.99;45.41
65013;BME280;51715;39.432;-77.518;2023-03-13T01:51:27;99379.91;;;5.99;45.22
65013;BME280;51715;39.432;-77.518;2023-03-13T01:54:02;99378.41;;;5.69;45.56
65013;BME280;51715;39.432;-77.518;2023-03-13T01:56:36;99381.76;;;4.74;47.81
65013;BME280;51715;39.432;-77.518;2023-03-13T01:59:08;99376.75;;;4.87;48.02
65013;BME280;51715;39.432;-77.518;2023-03-13T02:01:40;99378.38;;;4.79;48.09
65013;BME280;51715;39.432;-77.518;2023-03-13T02:04:10;99381.42;;;4.75;48.38
65013;BME280;51715;39.432;-77.518;2023-03-13T02:06:40;99381.80;;;5.61;46.97
65013;BME280;51715;39.432;-77.518;2023-03-13T02:09:13;99377.12;;;5.42;46.39
65013;BME280;51715;39.432;-77.518;2023-03-13T02:11:48;99379.37;;;5.67;46.01
65013;BME280;51715;39.432;-77.518;2023-03-13T02:14:19;99376.80;;;5.85;45.77
65013;BME280;51715;39.432;-77.518;2023-03-13T02:16:50;99379.73;;;5.58;46.07
65013;BME280;51715;39.432;-77.518;2023-03-13T02:19:30;99384.50;;;5.85;45.71
65013;BME280;51715;39.432;-77.518;2023-03-13T02:22:07;99386.59;;;6.30;45.40
65013;BME280;51715;39.432;-77.518;2023-03-13T02:24:44;99392.80;;;5.91;45.32
65013;BME280;51715;39.432;-77.518;2023-03-13T02:27:16;99391.19;;;5.73;45.78
65013;BME280;51715;39.432;-77.518;2023-03-13T02:29:45;99392.23;;;5.71;46.65
65013;BME280;51715;39.432;-77.518;2023-03-13T02:32:20;99385.54;;;5.54;46.46
65013;BME280;51715;39.432;-77.518;2023-03-13T02:34:51;99383.23;;;5.91;45.70
65013;BME280;51715;39.432;-77.518;2023-03-13T02:37:23;99379.46;;;6.01;45.58
65013;BME280;51715;39.432;-77.518;2023-03-13T02:39:55;99373.76;;;5.77;45.14
65013;BME280;51715;39.432;-77.518;2023-03-13T02:42:25;99372.45;;;5.56;46.30
65013;BME280;51715;39.432;-77.518;2023-03-13T02:44:55;99375.90;;;5.54;46.40
65013;BME280;51715;39.432;-77.518;2023-03-13T02:47:25;99374.89;;;5.49;46.12
65013;BME280;51715;39.432;-77.518;2023-03-13T02:49:53;99374.50;;;6.09;45.58
65013;BME280;51715;39.432;-77.518;2023-03-13T02:52:24;99372.38;;;5.58;45.51
65013;BME280;51715;39.432;-77.518;2023-03-13T02:54:59;99369.19;;;5.81;45.70
65013;BME280;51715;39.432;-77.518;2023-03-13T02:57:29;99368.55;;;5.96;45.18
65013;BME280;51715;39.432;-77.518;2023-03-13T02:59:58;99370.46;;;6.17;45.43
65013;BME280;51715;39.432;-77.518;2023-03-13T03:02:26;99372.12;;;5.74;45.63
65013;BME280;51715;39.432;-77.518;2023-03-13T03:04:56;99370.45;;;5.95;45.49
65013;BME280;51715;39.432;-77.518;2023-03-13T03:07:24;99369.80;;;6.17;44.97
65013;BME280;51715;39.432;-77.518;2023-03-13T03:09:53;99370.68;;;6.11;44.84
65013;BME280;51715;39.432;-77.518;2023-03-13T03:12:20;99372.52;;;5.64;46.17
65013;BME280;51715;39.432;-77.518;2023-03-13T03:14:48;99367.16;;;5.80;45.95
65013;BME280;51715;39.432;-77.518;2023-03-13T03:17:18;99363.33;;;6.05;45.37
65013;BME280;51715;39.432;-77.518;2023-03-13T03:19:46;99357.92;;;6.12;45.23
65013;BME280;51715;39.432;-77.518;2023-03-13T03:22:14;99361.93;;;6.22;45.25
65013;BME280;51715;39.432;-77.518;2023-03-13T03:24:43;99364.40;;;6.36;45.03
65013;BME280;51715;39.432;-77.518;2023-03-13T03:27:11;99360.87;;;6.20;45.10
65013;BME280;51715;39.432;-77.518;2023-03-13T03:29:40;99365.90;;;6.20;44.97
65013;BME280;51715;39.432;-77.518;2023-03-13T03:32:14;99365.61;;;6.40;45.05
65013;BME280;51715;39.432;-77.518;2023-03-13T03:34:43;99364.83;;;5.93;45.12
65013;BME280;51715;39.432;-77.518;2023-03-13T03:37:12;99362.08;;;6.01;45.47
65013;BME280;51715;39.432;-77.518;2023-03-13T03:39:41;99358.91;;;6.11;45.64
65013;BME280;51715;39.432;-77.518;2023-03-13T03:42:09;99357.63;;;6.11;45.48
65013;BME280;51715;39.432;-77.518;2023-03-13T03:44:38;99357.46;;;6.03;45.56
65013;BME280;51715;39.432;-77.518;2023-03-13T03:47:06;99356.68;;;5.99;46.13
65013;BME280;51715;39.432;-77.518;2023-03-13T03:49:34;99355.33;;;5.82;46.02
65013;BME280;51715;39.432;-77.518;2023-03-13T03:52:03;99357.75;;;6.11;45.65
65013;BME280;51715;39.432;-77.518;2023-03-13T03:54:31;99353.88;;;6.28;45.38
65013;BME280;51715;39.432;-77.518;2023-03-13T03:56:59;99347.02;;;6.18;45.22
65013;BME280;51715;39.432;-77.518;2023-03-13T03:59:27;99351.05;;;6.45;45.17
65013;BME280;51715;39.432;-77.518;2023-03-13T04:04:00;99347.60;;;5.98;44.93
65013;BME280;51715;39.432;-77.518;2023-03-13T04:06:30;99343.83;;;6.15;44.59
65013;BME280;51715;39.432;-77.518;2023-03-13T04:08:58;99342.07;;;5.99;44.44
65013;BME280;51715;39.432;-77.518;2023-03-13T04:11:26;99342.66;;;6.56;43.95
65013;BME280;51715;39.432;-77.518;2023-03-13T04:13:55;99346.24;;;5.24;46.76
65013;BME280;51715;39.432;-77.518;2023-03-13T04:16:24;99340.32;;;5.75;46.17
65013;BME280;51715;39.432;-77.518;2023-03-13T04:18:52;99339.31;;;5.26;47.15
65013;BME280;51715;39.432;-77.518;2023-03-13T04:21:21;99343.24;;;5.98;46.17
65013;BME280;51715;39.432;-77.518;2023-03-13T04:23:49;99342.42;;;5.77;46.33
65013;BME280;51715;39.432;-77.518;2023-03-13T04:26:17;99341.24;;;6.02;45.90
65013;BME280;51715;39.432;-77.518;2023-03-13T04:28:46;99341.55;;;5.75;45.75
65013;BME280;51715;39.432;-77.518;2023-03-13T04:31:15;99338.38;;;6.35;45.73
65013;BME280;51715;39.432;-77.518;2023-03-13T04:33:43;99339.29;;;5.35;47.20
65013;BME280;51715;39.432;-77.518;2023-03-13T04:36:10;99336.01;;;5.51;46.76
65013;BME280;51715;39.432;-77.518;2023-03-13T04:38:38;99333.90;;;6.03;46.03
65013;BME280;51715;39.432;-77.518;2023-03-13T04:41:07;99335.47;;;5.64;47.24
65013;BME280;51715;39.432;-77.518;2023-03-13T04:43:36;99330.89;;;5.93;46.37
65013;BME280;51715;39.432;-77.518;2023-03-13T04:46:04;99330.19;;;6.00;46.12
65013;BME280;51715;39.432;-77.518;2023-03-13T04:48:32;99330.34;;;5.65;47.19
65013;BME280;51715;39.432;-77.518;2023-03-13T04:51:00;99329.13;;;5.62;46.57
65013;BME280;51715;39.432;-77.518;2023-03-13T04:53:28;99328.68;;;5.89;46.35
65013;BME280;51715;39.432;-77.518;2023-03-13T04:55:57;99331.04;;;5.84;46.14
65013;BME280;51715;39.432;-77.518;2023-03-13T04:58:25;99329.90;;;5.94;46.01
65013;BME280;51715;39.432;-77.518;2023-03-13T05:00:53;99328.93;;;5.80;46.58
65013;BME280;51715;39.432;-77.518;2023-03-13T05:03:21;99324.30;;;5.64;46.50
65013;BME280;51715;39.432;-77.518;2023-03-13T05:05:50;99323.10;;;5.62;46.57
65013;BME280;51715;39.432;-77.518;2023-03-13T05:08:18;99324.13;;;5.95;46.19
65013;BME280;51715;39.432;-77.518;2023-03-13T05:10:47;99320.11;;;6.17;46.05
65013;BME280;51715;39.432;-77.518;2023-03-13T05:13:15;99317.40;;;6.37;45.64
65013;BME280;51715;39.432;-77.518;2023-03-13T05:15:44;99312.71;;;6.40;45.22
65013;BME280;51715;39.432;-77.518;2023-03-13T05:18:12;99318.00;;;6.21;46.23
65013;BME280;51715;39.432;-77.518;2023-03-13T05:20:41;99317.64;;;5.84;46.54
65013;BME280;51715;39.432;-77.518;2023-03-13T05:23:10;99320.96;;;5.76;46.54
65013;BME280;51715;39.432;-77.518;2023-03-13T05:25:38;99314.27;;;6.03;46.16
65013;BME280;51715;39.432;-77.518;2023-03-13T05:28:06;99315.03;;;5.54;46.85
65013;BME280;51715;39.432;-77.518;2023-03-13T05:30:34;99311.83;;;5.00;48.51
65013;BME280;51715;39.432;-77.518;2023-03-13T05:33:03;99312.39;;;5.36;48.12
65013;BME280;51715;39.432;-77.518;2023-03-13T05:35:30;99307.24;;;5.61;47.32
65013;BME280;51715;39.432;-77.518;2023-03-13T05:37:58;99298.02;;;5.87;46.74
65013;BME280;51715;39.432;-77.518;2023-03-13T05:40:26;99300.87;;;6.04;46.56
65013;BME280;51715;39.432;-77.518;2023-03-13T05:42:55;99299.20;;;5.91;46.35
65013;BME280;51715;39.432;-77.518;2023-03-13T05:45:23;99296.55;;;6.07;46.47
65013;BME280;51715;39.432;-77.518;2023-03-13T05:47:52;99295.84;;;6.00;46.34
65013;BME280;51715;39.432;-77.518;2023-03-13T05:50:20;99293.06;;;5.72;47.08
65013;BME280;51715;39.432;-77.518;2023-03-13T05:52:48;99294.31;;;6.05;46.63
65013;BME280;51715;39.432;-77.518;2023-03-13T05:55:17;99293.43;;;6.35;45.84
65013;BME280;51715;39.432;-77.518;2023-03-13T05:57:46;99291.63;;;6.50;45.83
65013;BME280;51715;39.432;-77.518;2023-03-13T06:00:16;99286.57;;;6.63;45.69
65013;BME280;51715;39.432;-77.518;2023-03-13T06:02:45;99290.87;;;6.10;46.47
65013;BME280;51715;39.432;-77.518;2023-03-13T06:05:14;99289.01;;;6.26;46.54
65013;BME280;51715;39.432;-77.518;2023-03-13T06:07:42;99288.24;;;5.09;48.09
65013;BME280;51715;39.432;-77.518;2023-03-13T06:10:11;99289.53;;;4.74;49.80
65013;BME280;51715;39.432;-77.518;2023-03-13T06:12:39;99286.33;;;5.54;48.17
65013;BME280;51715;39.432;-77.518;2023-03-13T06:15:09;99289.68;;;5.69;47.63
65013;BME280;51715;39.432;-77.518;2023-03-13T06:17:37;99278.86;;;5.84;47.09
65013;BME280;51715;39.432;-77.518;2023-03-13T06:20:06;99273.27;;;5.72;47.33
65013;BME280;51715;39.432;-77.518;2023-03-13T06:22:34;99278.15;;;5.71;47.51
65013;BME280;51715;39.432;-77.518;2023-03-13T06:25:02;99275.55;;;5.49;47.88
65013;BME280;51715;39.432;-77.518;2023-03-13T06:27:30;99272.57;;;6.01;47.07
65013;BME280;51715;39.432;-77.518;2023-03-13T06:29:58;99269.97;;;6.29;46.61
65013;BME280;51715;39.432;-77.518;2023-03-13T06:32:28;99271.36;;;6.50;46.02
65013;BME280;51715;39.432;-77.518;2023-03-13T06:34:55;99265.28;;;6.48;45.86
65013;BME280;51715;39.432;-77.518;2023-03-13T06:37:23;99260.97;;;6.66;45.62
65013;BME280;51715;39.432;-77.518;2023-03-13T06:39:51;99265.71;;;6.97;45.21
65013;BME280;51715;39.432;-77.518;2023-03-13T06:42:18;99261.99;;;6.91;45.09
65013;BME280;51715;39.432;-77.518;2023-03-13T06:44:47;99255.88;;;6.78;45.04
65013;BME280;51715;39.432;-77.518;2023-03-13T06:47:15;99255.60;;;6.54;45.10
65013;BME280;51715;39.432;-77.518;2023-03-13T06:49:43;99248.84;;;6.48;45.33
65013;BME280;51715;39.432;-77.518;2023-03-13T06:52:11;99249.84;;;6.23;46.27
65013;BME280;51715;39.432;-77.518;2023-03-13T06:54:39;99245.08;;;6.08;46.35
65013;BME280;51715;39.432;-77.518;2023-03-13T06:57:07;99243.12;;;6.40;45.97
65013;BME280;51715;39.432;-77.518;2023-03-13T06:59:34;99240.45;;;6.52;45.72
65013;BME280;51715;39.432;-77.518;2023-03-13T07:02:10;99245.07;;;5.76;46.69
65013;BME280;51715;39.432;-77.518;2023-03-13T07:04:38;99245.31;;;6.17;46.20
65013;BME280;51715;39.432;-77.518;2023-03-13T07:07:07;99243.90;;;6.31;46.09
65013;BME280;51715;39.432;-77.518;2023-03-13T07:09:35;99243.09;;;6.41;46.07
65013;BME280;51715;39.432;-77.518;2023-03-13T07:12:04;99234.17;;;6.68;45.66
65013;BME280;51715;39.432;-77.518;2023-03-13T07:14:32;99230.06;;;6.67;45.15
65013;BME280;51715;39.432;-77.518;2023-03-13T07:17:01;99230.96;;;6.11;46.09
65013;BME280;51715;39.432;-77.518;2023-03-13T07:19:29;99225.26;;;5.31;47.36
65013;BME280;51715;39.432;-77.518;2023-03-13T07:21:59;99222.68;;;5.72;46.99
65013;BME280;51715;39.432;-77.518;2023-03-13T07:24:26;99217.24;;;5.86;46.55
65013;BME280;51715;39.432;-77.518;2023-03-13T07:26:54;99212.17;;;6.15;46.22
65013;BME280;51715;39.432;-77.518;2023-03-13T07:29:23;99202.28;;;6.12;46.15
65013;BME280;51715;39.432;-77.518;2023-03-13T07:31:52;99201.21;;;6.35;46.19
65013;BME280;51715;39.432;-77.518;2023-03-13T07:34:20;99190.62;;;6.26;46.05
65013;BME280;51715;39.432;-77.518;2023-03-13T07:36:49;99185.70;;;6.47;45.88
65013;BME280;51715;39.432;-77.518;2023-03-13T07:39:17;99180.87;;;6.64;45.79
65013;BME280;51715;39.432;-77.518;2023-03-13T07:41:46;99181.41;;;6.48;45.68
65013;BME280;51715;39.432;-77.518;2023-03-13T07:44:14;99181.18;;;6.11;46.19
65013;BME280;51715;39.432;-77.518;2023-03-13T07:46:42;99178.26;;;6.17;45.96
65013;BME280;51715;39.432;-77.518;2023-03-13T07:49:11;99178.32;;;5.90;46.29
65013;BME280;51715;39.432;-77.518;2023-03-13T07:51:39;99185.32;;;5.43;47.51
65013;BME280;51715;39.432;-77.518;2023-03-13T07:54:08;99185.22;;;5.84;46.96
65013;BME280;51715;39.432;-77.518;2023-03-13T07:56:36;99185.45;;;5.51;47.33
65013;BME280;51715;39.432;-77.518;2023-03-13T07:59:05;99184.29;;;5.26;48.04
65013;BME280;51715;39.432;-77.518;2023-03-13T08:01:35;99186.59;;;5.07;48.96
65013;BME280;51715;39.432;-77.518;2023-03-13T08:04:03;99188.46;;;4.52;50.33
65013;BME280;51715;39.432;-77.518;2023-03-13T08:06:33;99182.95;;;5.32;48.86
65013;BME280;51715;39.432;-77.518;2023-03-13T08:09:04;99177.45;;;5.50;47.64
65013;BME280;51715;39.432;-77.518;2023-03-13T08:11:33;99176.16;;;5.58;47.48
65013;BME280;51715;39.432;-77.518;2023-03-13T08:14:02;99175.71;;;6.11;46.93
65013;BME280;51715;39.432;-77.518;2023-03-13T08:16:32;99171.98;;;5.61;47.51
65013;BME280;51715;39.432;-77.518;2023-03-13T08:19:03;99172.48;;;5.60;47.88
65013;BME280;51715;39.432;-77.518;2023-03-13T08:21:33;99170.39;;;5.59;47.46
65013;BME280;51715;39.432;-77.518;2023-03-13T08:24:04;99172.60;;;5.90;47.01
65013;BME280;51715;39.432;-77.518;2023-03-13T08:26:35;99179.21;;;5.99;46.93
65013;BME280;51715;39.432;-77.518;2023-03-13T08:29:05;99177.97;;;5.93;46.96
65013;BME280;51715;39.432;-77.518;2023-03-13T08:31:36;99177.43;;;5.88;46.36
65013;BME280;51715;39.432;-77.518;2023-03-13T08:34:06;99179.61;;;6.14;46.63
65013;BME280;51715;39.432;-77.518;2023-03-13T08:36:36;99177.11;;;6.21;46.28
65013;BME280;51715;39.432;-77.518;2023-03-13T08:39:06;99177.21;;;6.75;45.76
65013;BME280;51715;39.432;-77.518;2023-03-13T08:41:36;99180.02;;;6.71;45.53
65013;BME280;51715;39.432;-77.518;2023-03-13T08:44:05;99178.92;;;7.07;45.56
65013;BME280;51715;39.432;-77.518;2023-03-13T08:46:35;99182.74;;;7.19;45.24
65013;BME280;51715;39.432;-77.518;2023-03-13T08:49:05;99182.63;;;7.00;45.30
65013;BME280;51715;39.432;-77.518;2023-03-13T08:51:35;99179.94;;;7.14;45.04
65013;BME280;51715;39.432;-77.518;2023-03-13T08:54:04;99180.62;;;7.01;44.96
65013;BME280;51715;39.432;-77.518;2023-03-13T08:56:34;99181.40;;;7.08;45.06
65013;BME280;51715;39.432;-77.518;2023-03-13T08:59:04;99181.16;;;6.51;45.69
65013;BME280;51715;39.432;-77.518;2023-03-13T09:01:35;99178.78;;;7.13;45.50
65013;BME280;51715;39.432;-77.518;2023-03-13T09:04:04;99178.98;;;6.84;45.13
65013;BME280;51715;39.432;-77.518;2023-03-13T09:06:33;99180.97;;;7.03;45.23
65013;BME280;51715;39.432;-77.518;2023-03-13T09:09:04;99184.91;;;7.04;45.31
65013;BME280;51715;39.432;-77.518;2023-03-13T09:11:32;99183.88;;;7.14;45.01
65013;BME280;51715;39.432;-77.518;2023-03-13T09:14:01;99186.48;;;7.42;44.81
65013;BME280;51715;39.432;-77.518;2023-03-13T09:16:31;99192.09;;;7.02;44.76
65013;BME280;51715;39.432;-77.518;2023-03-13T09:19:00;99193.04;;;7.33;44.90
65013;BME280;51715;39.432;-77.518;2023-03-13T09:21:30;99191.43;;;7.21;44.82
65013;BME280;51715;39.432;-77.518;2023-03-13T09:23:59;99194.20;;;6.69;45.60
65013;BME280;51715;39.432;-77.518;2023-03-13T09:26:28;99191.95;;;7.10;45.15
65013;BME280;51715;39.432;-77.518;2023-03-13T09:28:56;99192.46;;;6.99;44.72
65013;BME280;51715;39.432;-77.518;2023-03-13T09:31:26;99192.32;;;7.29;44.68
65013;BME280;51715;39.432;-77.518;2023-03-13T09:33:55;99188.90;;;7.01;45.05
65013;BME280;51715;39.432;-77.518;2023-03-13T09:36:24;99190.51;;;6.83;44.89
65013;BME280;51715;39.432;-77.518;2023-03-13T09:38:55;99188.17;;;7.20;44.87
65013;BME280;51715;39.432;-77.518;2023-03-13T09:41:26;99189.13;;;7.10;44.97
65013;BME280;51715;39.432;-77.518;2023-03-13T09:44:03;99190.39;;;7.36;44.86
65013;BME280;51715;39.432;-77.518;2023-03-13T09:46:37;99189.12;;;7.16;45.11
65013;BME280;51715;39.432;-77.518;2023-03-13T09:49:14;99192.23;;;7.27;44.96
65013;BME280;51715;39.432;-77.518;2023-03-13T09:51:48;99190.46;;;6.96;44.92
65013;BME280;51715;39.432;-77.518;2023-03-13T09:54:24;99190.49;;;7.01;45.11
65013;BME280;51715;39.432;-77.518;2023-03-13T09:56:57;99186.43;;;6.92;45.33
65013;BME280;51715;39.432;-77.518;2023-03-13T09:59:31;99181.34;;;6.79;45.77
65013;BME280;51715;39.432;-77.518;2023-03-13T10:02:18;99181.62;;;6.66;45.38
65013;BME280;51715;39.432;-77.518;2023-03-13T10:04:52;99183.57;;;6.90;45.29
65013;BME280;51715;39.432;-77.518;2023-03-13T10:07:22;99187.01;;;7.17;45.22
65013;BME280;51715;39.432;-77.518;2023-03-13T10:09:50;99186.85;;;7.11;45.15
65013;BME280;51715;39.432;-77.518;2023-03-13T10:12:22;99188.97;;;7.36;44.99
65013;BME280;51715;39.432;-77.518;2023-03-13T10:15:04;99192.09;;;7.20;44.90
65013;BME280;51715;39.432;-77.518;2023-03-13T10:17:39;99195.87;;;7.56;45.04
65013;BME280;51715;39.432;-77.518;2023-03-13T10:20:18;99197.89;;;7.39;44.92
65013;BME280;51715;39.432;-77.518;2023-03-13T10:22:50;99201.58;;;7.39;44.54
65013;BME280;51715;39.432;-77.518;2023-03-13T10:25:28;99208.67;;;7.54;44.28
65013;BME280;51715;39.432;-77.518;2023-03-13T10:27:58;99211.75;;;7.53;44.15
65013;BME280;51715;39.432;-77.518;2023-03-13T10:30:28;99209.66;;;7.30;44.32
65013;BME280;51715;39.432;-77.518;2023-03-13T10:33:00;99211.87;;;7.21;44.37
65013;BME280;51715;39.432;-77.518;2023-03-13T10:35:44;99213.95;;;7.25;44.49
65013;BME280;51715;39.432;-77.518;2023-03-13T10:38:16;99219.76;;;7.35;44.57
65013;BME280;51715;39.432;-77.518;2023-03-13T10:40:57;99222.78;;;7.38;44.66
65013;BME280;51715;39.432;-77.518;2023-03-13T10:43:26;99224.53;;;7.46;44.70
65013;BME280;51715;39.432;-77.518;2023-03-13T10:45:55;99224.38;;;7.45;44.93
65013;BME280;51715;39.432;-77.518;2023-03-13T10:48:24;99223.96;;;7.55;44.92
65013;BME280;51715;39.432;-77.518;2023-03-13T10:50:54;99228.62;;;7.61;44.57
65013;BME280;51715;39.432;-77.518;2023-03-13T10:53:30;99233.36;;;7.63;44.70
65013;BME280;51715;39.432;-77.518;2023-03-13T10:56:08;99234.76;;;7.66;44.73
65013;BME280;51715;39.432;-77.518;2023-03-13T10:58:42;99235.70;;;7.42;44.53
65013;BME280;51715;39.432;-77.518;2023-03-13T11:01:17;99231.59;;;7.73;44.32
65013;BME280;51715;39.432;-77.518;2023-03-13T11:03:47;99233.16;;;7.25;44.33
65013;BME280;51715;39.432;-77.518;2023-03-13T11:06:33;99230.80;;;7.39;44.19
65013;BME280;51715;39.432;-77.518;2023-03-13T11:09:08;99230.90;;;7.77;44.58
65013;BME280;51715;39.432;-77.518;2023-03-13T11:11:49;99233.36;;;7.83;44.18
65013;BME280;51715;39.432;-77.518;2023-03-13T11:14:20;99232.89;;;7.84;44.09
65013;BME280;51715;39.432;-77.518;2023-03-13T11:16:51;99227.56;;;7.81;44.04
65013;BME280;51715;39.432;-77.518;2023-03-13T11:19:30;99215.44;;;7.87;44.04
65013;BME280;51715;39.432;-77.518;2023-03-13T11:22:15;99216.38;;;7.83;44.19
65013;BME280;51715;39.432;-77.518;2023-03-13T11:24:55;99216.07;;;7.62;44.32
65013;BME280;51715;39.432;-77.518;2023-03-13T11:27:33;99215.49;;;7.70;44.42
65013;BME280;51715;39.432;-77.518;2023-03-13T11:30:14;99212.83;;;7.74;44.37
65013;BME280;51715;39.432;-77.518;2023-03-13T11:32:49;99215.88;;;7.55;44.49
65013;BME280;51715;39.432;-77.518;2023-03-13T11:35:38;99220.17;;;7.83;44.26
65013;BME280;51715;39.432;-77.518;2023-03-13T11:38:12;99219.49;;;7.81;44.34
65013;BME280;51715;39.432;-77.518;2023-03-13T11:40:53;99222.38;;;7.82;44.34
65013;BME280;51715;39.432;-77.518;2023-03-13T11:43:37;99219.99;;;7.67;44.38
65013;BME280;51715;39.432;-77.518;2023-03-13T11:46:19;99223.11;;;7.74;44.47
65013;BME280;51715;39.432;-77.518;2023-03-13T11:49:04;99218.85;;;7.80;44.39
65013;BME280;51715;39.432;-77.518;2023-03-13T11:51:47;99211.88;;;7.82;44.46
65013;BME280;51715;39.432;-77.518;2023-03-13T11:54:35;99207.68;;;7.48;44.37
65013;BME280;51715;39.432;-77.518;2023-03-13T11:57:11;99206.68;;;8.05;44.41
65013;BME280;51715;39.432;-77.518;2023-03-13T11:59:44;99202.73;;;8.06;44.23
65013;BME280;51715;39.432;-77.518;2023-03-13T12:02:21;99197.99;;;7.93;44.30
65013;BME280;51715;39.432;-77.518;2023-03-13T12:04:55;99196.84;;;8.01;44.35
65013;BME280;51715;39.432;-77.518;2023-03-13T12:07:29;99193.93;;;8.25;44.27
65013;BME280;51715;39.432;-77.518;2023-03-13T12:10:03;99196.58;;;7.90;44.11
65013;BME280;51715;39.432;-77.518;2023-03-13T12:12:39;99199.53;;;8.00;44.01
65013;BME280;51715;39.432;-77.518;2023-03-13T12:15:19;99200.96;;;8.24;44.14
65013;BME280;51715;39.432;-77.518;2023-03-13T12:17:52;99206.43;;;8.34;44.29
65013;BME280;51715;39.432;-77.518;2023-03-13T12:20:26;99210.53;;;8.19;44.32
65013;BME280;51715;39.432;-77.518;2023-03-13T12:23:03;99215.60;;;8.23;44.34
65013;BME280;51715;39.432;-77.518;2023-03-13T12:25:44;99214.87;;;8.29;44.42
65013;BME280;51715;39.432;-77.518;2023-03-13T12:28:22;99216.38;;;8.47;44.39
65013;BME280;51715;39.432;-77.518;2023-03-13T12:31:06;99212.42;;;8.38;44.15
65013;BME280;51715;39.432;-77.518;2023-03-13T12:33:44;99208.95;;;8.25;44.09
65013;BME280;51715;39.432;-77.518;2023-03-13T12:36:19;99207.10;;;8.30;44.02
65013;BME280;51715;39.432;-77.518;2023-03-13T12:38:54;99209.72;;;8.28;43.93
65013;BME280;51715;39.432;-77.518;2023-03-13T12:41:26;99213.42;;;8.75;43.84
65013;BME280;51715;39.432;-77.518;2023-03-13T12:43:55;99214.19;;;8.11;44.22
65013;BME280;51715;39.432;-77.518;2023-03-13T12:46:34;99217.51;;;8.31;44.21
65013;BME280;51715;39.432;-77.518;2023-03-13T12:49:20;99219.71;;;8.10;44.01
65013;BME280;51715;39.432;-77.518;2023-03-13T12:52:10;99220.29;;;8.33;44.25
65013;BME280;51715;39.432;-77.518;2023-03-13T12:54:50;99225.89;;;7.70;44.51
65013;BME280;51715;39.432;-77.518;2023-03-13T12:57:56;99231.11;;;8.30;44.41
65013;BME280;51715;39.432;-77.518;2023-03-13T13:00:30;99235.61;;;8.06;44.70
65013;BME280;51715;39.432;-77.518;2023-03-13T13:03:08;99236.72;;;8.16;44.38
65013;BME280;51715;39.432;-77.518;2023-03-13T13:05:59;99240.18;;;6.74;46.29
65013;BME280;51715;39.432;-77.518;2023-03-13T13:08:33;99238.89;;;7.18;46.30
65013;BME280;51715;39.432;-77.518;2023-03-13T13:12:20;99243.38;;;7.61;45.99
65013;BME280;51715;39.432;-77.518;2023-03-13T13:15:21;99250.03;;;8.54;45.46